Terminal Aerodrome Forecast
Issued by NWS

Home | Current Version | Previous Version | Graphics & Text | Print | Product List | Glossary On
Versions: 1 2 3 4 5 6 7 8 9 10 11 12 13 14 15
000
FTUS43 KICT 141720
TAFRSL
TAF
KRSL 141720Z 1418/1518 VRB03KT P6SM OVC060
     FM150100 09005KT 5SM -FZRA OVC030
     FM150600 08004KT 4SM -FZRA OVC015
     FM151200 07005KT 3SM -FZRA OVC003=

USA.gov is the U.S. government's official web portal to all federal, state and local government web resources and services.